Home   Weather   Russia   Abakan   Past weeks
Flag for Russia

Past Weather in Abakan, Russia — Yesterday and Last 2 Weeks

Currently: 63 °F. Passing clouds. (Weather station: Abakan, Russia). See more current weather

Past Weather in Abakan — Graph

°F

Abakan Temperature Yesterday

Maximum temperature yesterday: 70 °F (at 1:00 pm)
Minimum temperature yesterday: 36 °F (at 4:00 am)
Average temperature yesterday: 56 °F

High & Low Weather Summary for the Past Weeks

 TemperatureHumidityPressure
High75 °F (May 6, 6:00 pm)100% (Apr 28, 10:30 am)30.45 "Hg (Apr 28, 10:30 am)
Low28 °F (May 5, 4:30 am)17% (May 11, 5:00 pm)29.62 "Hg (Apr 28, 11:30 pm)
Average50 °F57%29.98 "Hg
* Reported Apr 28 10:30 am — May 13 10:00 am, Abakan. Weather by CustomWeather, © 2021

Note: Actual official high and low records may vary slightly from our data, if they occured in-between our weather recording intervals... More about our weather records

Abakan Weather History for the Previous 24 Hours

Scroll right to see more
 ConditionsComfort  
Time TempWeatherWind HumidityBarometerVisibility
10:00 am
Thu, May 13
61 °FPassing clouds.6 mph23%29.95 "HgN/A
9:30 am59 °FSunny.6 mph34%29.95 "Hg10 mi
9:00 am55 °FSunny.3 mph38%29.95 "Hg10 mi
8:30 am54 °FPassing clouds.3 mph47%29.95 "HgN/A
8:00 am54 °FSunny.1 mph47%29.98 "Hg10 mi
7:30 am50 °FSunny.3 mph50%29.95 "Hg10 mi
7:00 am46 °FSunny.3 mph57%29.98 "Hg10 mi
6:30 am43 °FSunny.No wind66%29.95 "Hg10 mi
6:00 am36 °FSunny.3 mph75%29.95 "Hg10 mi
5:30 am36 °FClear.1 mph75%29.95 "Hg10 mi
5:00 am36 °FClear.1 mph70%29.95 "Hg10 mi
4:30 am41 °FClear.1 mph61%29.95 "Hg10 mi
4:00 am36 °FClear.3 mph70%29.92 "Hg10 mi
3:30 am39 °FClear.1 mph61%29.92 "Hg10 mi
3:00 am39 °FClear.6 mph65%29.92 "Hg10 mi
2:30 am39 °FClear.6 mph65%29.92 "Hg10 mi
2:00 am48 °FClear.3 mph50%29.92 "Hg10 mi
1:30 am48 °FClear.No wind50%29.92 "Hg10 mi
1:00 am48 °FClear.No wind50%29.92 "Hg10 mi
12:30 am45 °FClear.1 mph53%29.89 "Hg10 mi
12:00 am46 °FClear.6 mph53%29.89 "Hg10 mi
11:30 pm
Wed, May 12
48 °FClear.6 mph54%29.89 "Hg10 mi
11:00 pm50 °FClear.3 mph50%29.89 "Hg6 mi
10:30 pm50 °FClear.3 mph50%29.89 "Hg10 mi
10:00 pm54 °FClear.3 mph41%29.86 "Hg10 mi
9:30 pm54 °FSunny.8 mph41%29.86 "Hg10 mi
9:00 pm57 °FSunny.6 mph31%29.86 "Hg10 mi
8:30 pm61 °FSunny.6 mph27%29.86 "Hg10 mi
8:00 pm64 °FSunny.8 mph26%29.86 "Hg10 mi
7:30 pm66 °FSunny.8 mph26%29.86 "Hg10 mi
7:00 pm68 °FSunny.8 mph23%29.86 "Hg10 mi
6:30 pm68 °FSunny.10 mph21%29.86 "Hg10 mi
6:00 pm68 °FSunny.8 mph21%29.86 "Hg10 mi
5:30 pm70 °FSunny.10 mph20%29.86 "Hg10 mi
5:00 pm70 °FSunny.10 mph20%29.86 "Hg10 mi
4:30 pm70 °FSunny.13 mph20%29.86 "Hg10 mi
4:00 pm70 °FSunny.13 mph20%29.86 "Hg10 mi
3:30 pm70 °FSunny.10 mph20%29.86 "Hg10 mi
3:00 pm70 °FPassing clouds.8 mph20%29.86 "HgN/A
2:30 pm70 °FPassing clouds.8 mph20%29.86 "HgN/A
2:00 pm70 °FPassing clouds.3 mph21%29.86 "HgN/A
1:30 pm68 °FSunny.6 mph23%29.89 "Hg10 mi
1:00 pm70 °FPassing clouds.8 mph20%29.89 "HgN/A
12:30 pm68 °FSunny.13 mph21%29.89 "Hg10 mi
12:00 pm68 °FPassing clouds.13 mph20%29.89 "HgN/A
11:30 am66 °FPassing clouds.6 mph24%29.92 "HgN/A
11:00 am64 °FSunny.1 mph30%29.92 "Hg10 mi
Weather by CustomWeather, © 2021

See weather overview